Time;durP1;ratioP1;P1;durP2;ratioP2;P2;SDS_P1;SDS_P2;PMS_P1;PMS_P2;Temp;Humidity;BMP_temperature;BMP_pressure;BME280_temperature;BME280_humidity;BME280_pressure;Samples;Min_cycle;Max_cycle;Signal;HPM_P1;HPM_P2
2023/05/17 00:00:13;;;;;;;16.70;14.90;;;;;;;11.59;93.54;99254.70;438162;1253;140407;-62
2023/05/17 00:10:19;;;;;;;19.40;17.60;;;;;;;11.58;94.08;99249.89;436758;1249;139738;-62
2023/05/17 00:20:24;;;;;;;18.70;16.90;;;;;;;11.55;94.45;99261.48;437033;1253;139899;-61
2023/05/17 00:30:30;;;;;;;17.50;15.60;;;;;;;11.51;94.59;99274.23;436923;1251;139773;-63
2023/05/17 00:40:36;;;;;;;16.50;15.00;;;;;;;11.46;94.88;99277.00;437250;1249;139500;-61
2023/05/17 00:50:42;;;;;;;18.30;16.40;;;;;;;11.40;95.02;99271.87;437227;1251;139931;-62
2023/05/17 01:00:50;;;;;;;14.50;13.10;;;;;;;11.40;95.29;99282.59;436914;1250;141284;-61
2023/05/17 01:11:03;;;;;;;15.30;13.80;;;;;;;11.38;95.40;99280.42;437140;1251;139607;-62
2023/05/17 01:21:30;;;;;;;17.00;15.30;;;;;;;11.32;95.62;99278.91;436813;1250;139982;-62
2023/05/17 01:31:36;;;;;;;15.20;13.60;;;;;;;11.28;95.95;99287.27;436759;1250;139964;-61
2023/05/17 01:41:43;;;;;;;12.80;11.50;;;;;;;11.28;96.20;99296.16;437047;1251;140020;-62
2023/05/17 01:51:57;;;;;;;12.10;11.00;;;;;;;11.25;96.40;99298.70;436525;1248;139321;-62
2023/05/17 02:02:07;;;;;;;12.30;11.00;;;;;;;11.23;96.67;99305.13;436708;1251;140261;-62
2023/05/17 02:12:13;;;;;;;12.30;11.00;;;;;;;11.20;96.81;99312.84;436635;1251;139520;-61
2023/05/17 02:22:18;;;;;;;12.40;11.20;;;;;;;11.18;96.86;99316.84;436802;1251;140903;-62
2023/05/17 02:32:25;;;;;;;12.00;10.90;;;;;;;11.08;96.96;99308.64;436601;1251;139531;-62
2023/05/17 02:42:31;;;;;;;15.60;14.00;;;;;;;11.00;97.06;99312.89;436567;1248;140100;-61
2023/05/17 02:52:37;;;;;;;14.40;12.90;;;;;;;10.89;97.01;99319.58;437290;1250;140922;-62
2023/05/17 03:02:42;;;;;;;12.10;11.00;;;;;;;10.69;96.74;99334.05;436787;1251;140393;-62
2023/05/17 03:12:48;;;;;;;12.50;11.30;;;;;;;10.52;96.72;99342.41;436816;1250;139437;-62
2023/05/17 03:22:54;;;;;;;11.60;10.40;;;;;;;10.28;96.54;99349.20;436604;1253;140595;-62
2023/05/17 03:33:00;;;;;;;11.50;10.40;;;;;;;10.10;96.48;99350.76;437113;1251;139299;-63
2023/05/17 03:43:06;;;;;;;13.90;11.70;;;;;;;10.02;96.67;99361.42;436877;1253;139319;-61
2023/05/17 03:53:12;;;;;;;14.60;11.00;;;;;;;10.01;96.85;99361.34;436791;1251;140892;-62
2023/05/17 04:03:17;;;;;;;14.10;9.60;;;;;;;9.92;96.58;99373.03;436504;1253;139659;-62
2023/05/17 04:13:24;;;;;;;11.10;9.90;;;;;;;9.86;96.62;99388.51;436803;1250;139437;-62
2023/05/17 04:23:30;;;;;;;12.20;10.50;;;;;;;9.82;96.73;99405.87;436920;1249;140707;-63
2023/05/17 04:33:37;;;;;;;13.00;10.60;;;;;;;9.82;96.78;99413.20;436876;1253;140477;-62
2023/05/17 04:43:42;;;;;;;8.40;7.30;;;;;;;9.84;96.49;99411.38;436698;1251;139342;-61
2023/05/17 04:53:48;;;;;;;14.80;7.20;;;;;;;9.77;95.46;99408.11;436513;1251;140052;-63
2023/05/17 05:03:54;;;;;;;8.00;4.90;;;;;;;9.76;94.72;99393.64;436581;1248;139872;-62
2023/05/17 05:14:00;;;;;;;6.30;4.50;;;;;;;9.78;93.37;99396.00;436999;1250;138501;-63
2023/05/17 05:24:06;;;;;;;13.30;5.70;;;;;;;9.84;92.83;99417.13;436438;1251;140305;-62
2023/05/17 05:34:12;;;;;;;4.70;3.40;;;;;;;9.88;92.05;99428.56;436779;1251;140476;-63
2023/05/17 05:44:18;;;;;;;8.10;4.00;;;;;;;9.87;91.42;99434.95;437058;1251;139574;-63
2023/05/17 05:54:24;;;;;;;9.50;3.80;;;;;;;9.88;91.23;99441.14;436878;1252;139521;-62
2023/05/17 06:04:29;;;;;;;6.50;4.40;;;;;;;9.87;91.46;99453.95;437148;1252;140212;-62
2023/05/17 06:14:49;;;;;;;8.40;5.60;;;;;;;9.94;91.27;99468.25;436632;1253;138973;-63
2023/05/17 06:24:55;;;;;;;9.00;7.00;;;;;;;9.99;91.42;99486.97;436681;1250;140999;-63
2023/05/17 06:35:00;;;;;;;8.10;7.10;;;;;;;10.01;91.77;99477.24;437070;1251;139720;-64
2023/05/17 06:45:09;;;;;;;11.40;7.70;;;;;;;10.14;91.95;99489.71;437097;1248;138825;-61
2023/05/17 06:55:15;;;;;;;9.50;8.20;;;;;;;10.33;91.92;99495.48;436712;1248;139549;-61
2023/05/17 07:05:22;;;;;;;14.90;9.20;;;;;;;10.55;91.93;99517.25;437770;1248;140143;-62
2023/05/17 07:15:28;;;;;;;10.60;9.20;;;;;;;10.73;91.17;99534.42;437340;1252;139469;-62
2023/05/17 07:25:37;;;;;;;14.60;10.20;;;;;;;10.75;90.85;99536.42;437339;1248;152407;-64
2023/05/17 07:35:43;;;;;;;15.60;9.70;;;;;;;10.78;90.62;99546.39;437631;1252;140716;-62
2023/05/17 07:45:49;;;;;;;14.10;9.50;;;;;;;10.84;90.42;99549.69;436848;1248;140274;-62
2023/05/17 07:55:55;;;;;;;9.70;7.20;;;;;;;10.88;89.77;99545.05;436790;1251;140153;-62
2023/05/17 08:06:00;;;;;;;9.60;6.90;;;;;;;10.98;89.61;99544.75;437063;1253;141141;-63
2023/05/17 08:16:08;;;;;;;10.20;6.10;;;;;;;11.46;88.73;99541.52;437138;1253;140044;-63
2023/05/17 08:26:19;;;;;;;14.60;6.70;;;;;;;12.00;87.28;99550.96;436962;1248;139724;-62
2023/05/17 08:36:25;;;;;;;10.00;6.40;;;;;;;12.28;85.92;99554.80;436855;1251;142687;-62
2023/05/17 08:46:32;;;;;;;11.80;6.10;;;;;;;12.22;85.70;99569.25;437340;1253;139198;-62
2023/05/17 08:56:41;;;;;;;8.10;3.60;;;;;;;12.25;83.95;99575.22;437312;1248;140268;-61
2023/05/17 09:06:47;;;;;;;8.40;2.90;;;;;;;12.79;80.91;99593.47;436844;1253;139349;-61
2023/05/17 09:16:57;;;;;;;4.50;2.70;;;;;;;13.00;77.98;99596.70;436961;1253;139386;-62
2023/05/17 09:27:05;;;;;;;3.10;1.80;;;;;;;13.20;76.33;99592.56;437327;1253;139580;-63
2023/05/17 09:37:16;;;;;;;6.60;1.90;;;;;;;13.41;74.64;99587.53;437265;1253;139281;-61
2023/05/17 09:47:30;;;;;;;6.90;1.70;;;;;;;13.58;72.56;99603.45;436801;1251;140233;-62
2023/05/17 09:57:40;;;;;;;4.90;1.70;;;;;;;13.73;71.75;99605.36;436539;1253;141013;-62
2023/05/17 10:07:50;;;;;;;5.70;2.30;;;;;;;13.75;70.34;99605.20;438188;1253;139326;-62
2023/05/17 10:17:57;;;;;;;5.90;2.30;;;;;;;13.94;69.04;99601.48;436895;1253;139397;-63
2023/05/17 10:28:05;;;;;;;3.30;2.40;;;;;;;13.84;67.83;99596.08;436890;1253;139117;-62
2023/05/17 10:38:12;;;;;;;6.80;2.20;;;;;;;13.88;67.81;99595.02;437158;1251;138013;-62
2023/05/17 10:48:19;;;;;;;8.30;3.40;;;;;;;13.96;67.26;99592.50;437338;1253;140443;-62
2023/05/17 10:58:28;;;;;;;5.90;2.20;;;;;;;14.36;66.53;99592.54;436853;1253;139018;-62
2023/05/17 11:08:34;;;;;;;8.10;2.30;;;;;;;14.96;65.05;99595.34;437161;1253;138010;-62
2023/05/17 11:18:50;;;;;;;3.20;2.00;;;;;;;15.05;63.37;99598.66;437127;1253;139608;-62
2023/05/17 11:29:02;;;;;;;4.10;2.90;;;;;;;15.15;62.05;99606.46;437598;1248;138765;-62
2023/05/17 11:39:16;;;;;;;4.40;2.10;;;;;;;15.31;61.83;99617.84;437232;1253;139255;-61
2023/05/17 11:49:22;;;;;;;5.70;3.40;;;;;;;15.10;61.19;99622.41;437391;1253;138811;-62
2023/05/17 11:59:41;;;;;;;5.00;2.60;;;;;;;14.95;60.92;99631.90;436647;1253;138476;-62
2023/05/17 12:09:47;;;;;;;5.30;3.90;;;;;;;14.69;61.42;99627.85;437145;1252;140570;-62
2023/05/17 12:19:55;;;;;;;6.80;4.90;;;;;;;14.63;61.98;99644.85;437147;1253;139201;-62
2023/05/17 12:30:13;;;;;;;7.60;4.70;;;;;;;14.63;61.91;99658.72;437065;1251;139793;-61
2023/05/17 12:40:20;;;;;;;9.00;5.70;;;;;;;14.44;62.10;99666.94;437239;1251;140118;-63
2023/05/17 12:50:31;;;;;;;11.70;5.50;;;;;;;14.46;62.37;99671.68;437600;1252;138128;-64
2023/05/17 13:00:37;;;;;;;10.20;5.50;;;;;;;14.25;62.23;99667.52;437915;1250;139243;-62
2023/05/17 13:10:42;;;;;;;9.00;5.50;;;;;;;14.12;62.45;99667.86;437466;1253;139303;-62
2023/05/17 13:20:50;;;;;;;16.30;6.80;;;;;;;13.98;62.51;99670.96;437622;1251;140841;-64
2023/05/17 13:30:56;;;;;;;7.80;6.60;;;;;;;13.89;62.92;99664.14;437381;1253;138292;-62
2023/05/17 13:41:02;;;;;;;14.30;7.30;;;;;;;13.69;63.31;99678.33;437399;1252;138114;-63
2023/05/17 13:51:08;;;;;;;9.80;6.00;;;;;;;13.86;63.65;99693.20;437606;1253;138362;-62
2023/05/17 14:01:14;;;;;;;10.30;6.50;;;;;;;13.85;63.31;99708.27;437884;1253;137943;-63
2023/05/17 14:11:20;;;;;;;12.00;6.20;;;;;;;13.74;63.28;99729.95;437367;1254;140047;-65
2023/05/17 14:21:26;;;;;;;11.30;5.40;;;;;;;13.71;62.87;99745.21;436914;1253;140891;-63
2023/05/17 14:31:32;;;;;;;8.50;4.90;;;;;;;13.46;62.89;99765.26;437487;1253;140292;-61
2023/05/17 14:41:38;;;;;;;10.30;5.30;;;;;;;13.28;63.12;99789.57;437263;1251;138690;-62
2023/05/17 14:51:45;;;;;;;8.80;4.70;;;;;;;13.22;63.43;99802.15;441809;1253;140989;-62
2023/05/17 15:01:51;;;;;;;8.90;5.40;;;;;;;13.17;63.61;99811.65;437105;1251;138127;-62
2023/05/17 15:11:57;;;;;;;6.10;5.20;;;;;;;13.24;63.91;99815.56;436939;1251;138565;-63
2023/05/17 15:22:03;;;;;;;14.50;9.10;;;;;;;13.24;64.36;99813.96;437012;1253;139490;-62
2023/05/17 15:32:09;;;;;;;12.60;6.80;;;;;;;13.14;64.55;99815.86;436648;1251;139157;-62
2023/05/17 15:42:15;;;;;;;11.00;6.20;;;;;;;12.92;64.89;99817.98;437017;1253;138918;-63
2023/05/17 15:52:21;;;;;;;7.80;4.80;;;;;;;12.65;64.99;99822.64;437337;1253;139902;-63
2023/05/17 16:02:27;;;;;;;7.20;4.60;;;;;;;12.56;65.25;99836.77;437565;1253;140391;-64
2023/05/17 16:12:33;;;;;;;8.10;5.20;;;;;;;12.30;65.13;99847.09;437385;1251;138505;-64
2023/05/17 16:22:43;;;;;;;8.40;4.40;;;;;;;12.10;65.53;99856.14;437303;1251;139910;-64
2023/05/17 16:32:49;;;;;;;6.60;3.00;;;;;;;11.91;65.61;99867.36;437278;1253;138614;-62
2023/05/17 16:42:55;;;;;;;6.80;4.10;;;;;;;11.69;65.86;99876.95;436555;1251;138276;-63
2023/05/17 16:53:01;;;;;;;8.20;4.40;;;;;;;11.54;66.16;99893.88;436268;1253;140657;-62
2023/05/17 17:03:07;;;;;;;10.90;4.70;;;;;;;11.41;66.38;99902.23;436619;1249;138077;-63
2023/05/17 17:13:14;;;;;;;5.60;4.10;;;;;;;11.21;66.64;99913.10;436947;1251;138198;-62
2023/05/17 17:23:20;;;;;;;8.10;4.40;;;;;;;11.08;66.90;99925.79;437035;1252;138316;-62
2023/05/17 17:33:26;;;;;;;6.10;3.60;;;;;;;11.00;67.14;99941.16;437040;1251;140259;-63
2023/05/17 17:43:32;;;;;;;11.90;6.10;;;;;;;10.89;67.59;99950.89;436534;1253;138744;-63
2023/05/17 17:53:40;;;;;;;13.30;5.90;;;;;;;10.80;67.82;99951.83;437018;1251;139506;-62
2023/05/17 18:03:46;;;;;;;7.00;4.60;;;;;;;10.70;68.19;99958.17;437391;1252;140091;-62
2023/05/17 18:13:51;;;;;;;9.30;5.30;;;;;;;10.62;68.53;99961.44;437326;1253;138856;-64
2023/05/17 18:23:57;;;;;;;10.10;5.20;;;;;;;10.53;69.00;99964.75;436921;1251;139203;-62
2023/05/17 18:34:03;;;;;;;16.80;10.40;;;;;;;10.45;69.46;99975.67;436767;1252;141206;-62
2023/05/17 18:44:09;;;;;;;12.40;4.90;;;;;;;10.39;69.93;99987.21;436479;1251;139258;-62
2023/05/17 18:54:16;;;;;;;11.50;4.90;;;;;;;10.34;70.32;99997.83;436611;1253;140592;-63
2023/05/17 19:04:22;;;;;;;10.30;6.00;;;;;;;10.26;71.09;100005.77;436623;1251;139583;-63
2023/05/17 19:14:28;;;;;;;11.20;6.80;;;;;;;10.18;72.10;100010.75;436790;1253;139247;-62
2023/05/17 19:24:34;;;;;;;9.90;6.80;;;;;;;10.09;73.08;100013.52;437163;1251;170453;-63
2023/05/17 19:34:40;;;;;;;14.10;7.90;;;;;;;9.97;73.75;100013.13;437135;1253;140494;-63
2023/05/17 19:44:46;;;;;;;10.60;5.80;;;;;;;9.88;74.77;100009.77;437084;1248;139663;-62
2023/05/17 19:54:52;;;;;;;9.70;5.30;;;;;;;9.81;75.01;100010.36;437168;1248;140531;-62
2023/05/17 20:05:00;;;;;;;11.80;5.30;;;;;;;9.73;74.64;100019.34;437080;1250;139597;-62
2023/05/17 20:15:09;;;;;;;5.70;3.40;;;;;;;9.66;73.78;100022.98;437725;1250;140520;-63
2023/05/17 20:25:15;;;;;;;6.90;4.00;;;;;;;9.65;72.61;100025.66;438328;1250;140363;-63
2023/05/17 20:35:21;;;;;;;6.40;3.10;;;;;;;9.61;71.90;100036.54;437674;1248;140764;-63
2023/05/17 20:45:28;;;;;;;10.40;2.70;;;;;;;9.56;71.49;100041.69;437313;1251;140044;-63
2023/05/17 20:55:34;;;;;;;8.50;2.90;;;;;;;9.50;71.20;100050.73;437939;1253;141167;-62
2023/05/17 21:05:40;;;;;;;9.30;2.70;;;;;;;9.45;70.96;100058.20;437614;1250;140286;-63
2023/05/17 21:15:46;;;;;;;9.60;3.30;;;;;;;9.38;71.12;100072.15;437346;1249;140871;-62
2023/05/17 21:25:52;;;;;;;6.10;3.40;;;;;;;9.33;70.67;100081.36;438064;1250;138867;-63
2023/05/17 21:35:58;;;;;;;9.00;3.70;;;;;;;9.32;70.31;100098.69;437068;1253;139638;-62
2023/05/17 21:46:04;;;;;;;6.40;3.10;;;;;;;9.26;69.94;100118.52;436911;1248;140865;-63
2023/05/17 21:56:11;;;;;;;10.90;2.90;;;;;;;9.21;69.85;100132.40;436914;1253;138771;-63
2023/05/17 22:06:18;;;;;;;8.40;3.30;;;;;;;9.13;70.38;100130.90;436834;1248;140651;-63
2023/05/17 22:16:24;;;;;;;6.60;3.00;;;;;;;9.04;70.46;100134.27;437635;1250;140431;-62
2023/05/17 22:26:30;;;;;;;7.70;3.30;;;;;;;8.93;70.11;100151.27;436968;1248;138877;-62
2023/05/17 22:36:36;;;;;;;8.10;2.70;;;;;;;8.81;70.15;100157.93;436866;1248;138992;-62
2023/05/17 22:46:42;;;;;;;7.50;2.60;;;;;;;8.67;69.92;100164.87;436857;1253;139748;-63
2023/05/17 22:56:48;;;;;;;6.50;2.40;;;;;;;8.51;69.64;100168.18;437089;1251;140151;-62
2023/05/17 23:07:00;;;;;;;8.00;2.10;;;;;;;8.36;69.34;100180.00;436972;1253;139314;-62
2023/05/17 23:17:07;;;;;;;11.90;2.30;;;;;;;8.23;69.12;100191.39;437355;1250;140422;-63
2023/05/17 23:27:13;;;;;;;7.40;2.70;;;;;;;8.12;69.05;100200.98;436842;1251;141153;-63
2023/05/17 23:37:19;;;;;;;7.60;2.70;;;;;;;8.00;69.16;100217.87;436904;1253;141084;-62
2023/05/17 23:47:24;;;;;;;3.90;1.50;;;;;;;7.88;69.39;100224.13;436540;1252;139357;-62
2023/05/17 23:57:30;;;;;;;6.00;1.60;;;;;;;7.74;69.10;100216.02;436983;1251;140211;-63
